Tipton, IN

12:44 AM EST on December 05, 2016 (GMT -0500)
Tipton, In 46072 | | Change Station

Elev 876 ft 40.29 °N, 86.05 °W | Updated 21 seconds ago

Overcast
Overcast
33.2 °F
Feels Like 28 °F
N
6.0
Wind Variable Wind from NNW

Today
High -- | Low -- °F
--% Chance of Precip.
Yesterday
High -- | Low -- °F
Precip. -- in
Pressure 29.97 in
Visibility 10.0 miles
Clouds Overcast 700 ft
Windchill 28 °F
Dew Point 33 °F
Humidity 98%
Rainfall 0.00 in
Snow Depth Not available.
7:51 AM 5:17 PM
Waxing Crescent, 28% visible
METAR KOKK 050456Z AUTO 27014KT 10SM OVC007 01/00 A2995 RMK AO2 SLP149 T00060000 400331006 FZRANO
Pressure 29.97 in
Visibility 10.0 miles
Clouds Overcast 700 ft
Windchill 28 °F
Dew Point 33 °F
Humidity 98%
Rainfall 0.00 in
Snow Depth Not available.
7:51 AM 5:17 PM
Waxing Crescent, 28% visible
METAR KOKK 050456Z AUTO 27014KT 10SM OVC007 01/00 A2995 RMK AO2 SLP149 T00060000 400331006 FZRANO

10-Day Weather Forecast

Almanac

Astronomy

Dec. 05, 2016 Rise Set
Actual Time
Civil Twilight
Nautical Twilight
Astronomical Twilight
Moon
Length of Visible Light
Length of Day
Tomorrow will be .
, % of the Moon is Illuminated

Today's Extremes

State Highs State Lows

Community

WunderPhotos

Upload Photos

1,955,770 photos uploaded!

WunderBlog® & News

Nearby

Air Quality

  Air Quality AQ Index Pollutant
Not available.

Snow Depth

Station Depth Elevation

Earthquake Activity

City Distance Mag. Time & Date
Minimum magnitude displayed is 2.5.

Coastal Water Temperatures

Place Temperature

Stations

Nearby Weather Stations

Station Location Temp. Windchill Dew Point Humidity Wind Precip. Elev Updated Type
                   

Watches & Warnings

There are currently no watches in effect.